Jose Sanabria

Scout - Libertad
20 Aug 2028
Sunday
Process

Personality

Adaptability (12) Ambition (2) Controversy (8) Loyalty (1) Pressure (5) Professionalism (12) Sportsmanship (7) Temperament (13)

Profile

Coaching Style Democratic
License Continental C
Determination 7
Man Management 10
Motivating 6
Discipline 10
Job Satisfaction
100%
Fatigue
0%
Role Scout
Wage 33.4K p/w
Contract 14.03.2029

Performance

Behaviour Good
Training Effectiveness
35%
Player Development
30%
Injury Prevention
55%
Tactical Implementation
40%

Recent Events

Attended a recruitment meeting now
Recommended a transfer target now
Assessed a player now
Assessed a player now
Assessed a player 7d ago
Assessed a player 7d ago
Assessed a player 7d ago
Assessed a player 7d ago

Currently Monitoring

254
Player Club Status Ability Confidence Watched Last Observed Latest Vote
Gideon Manaseh Ikorodu City Active 83 / 95 40% 2 19.08.2028 -
Peyton Miller New England Revolution Active 117 / 120 40% 1 19.08.2028 -
Darwin Pérez Metropolitanos Active 89 / 88 40% 1 18.08.2028 -
Mateo Faure BATE Active 102 / 89 40% 1 18.08.2028 -
Roberto Medina La Equidad Active 103 / 100 40% 1 17.08.2028 -
Máximo Munarriz San Telmo Active 104 / 107 40% 1 17.08.2028 -
Tiago Gordillo San Miguel Active 86 / 91 40% 2 15.08.2028 -
Augusto Bando Ascoli Active 125 / 120 40% 1 13.08.2028 -
Tiago Rodríguez Central Norte Active 81 / 80 40% 1 13.08.2028 -
Agustín Medina Lanús Active 126 / 121 40% 1 12.08.2028 -
Lautaro Dufur Juventud Active 109 / 109 40% 1 12.08.2028 -
Luis Otávio Orlando City Active 126 / 119 40% 1 10.08.2028 -
Musa Danjuma Umraniyespor Active 100 / 106 40% 1 10.08.2028 -
Honest Ahanor Atalanta Active 133 / 147 40% 5 09.08.2028 -
Simone Suppa Virtus Verona Active 88 / 94 40% 1 09.08.2028 -
Francisco Machis Llaneros Active 83 / 92 40% 2 05.07.2028 -
Giovanni Leoni Lincoln City Active 139 / 145 40% 1 05.07.2028 -
Christos Mouzakitis Hull City Active 131 / 147 40% 1 20.06.2028 -
Alexis Cañete Nacional Active 92 / 93 62% 1 07.06.2028 Approve
Oumar Camara Vitoria Guimaraes Active 135 / 137 40% 3 01.05.2028 -
Jake Evans Crewe Alexandra Active 104 / 122 40% 1 01.05.2028 -
Shea Lacey Crystal Palace Active 146 / 141 40% 4 29.04.2028 -
Luca Williams-Barnett Walsall Active 124 / 120 40% 7 29.04.2028 -
André Miranda Porto Active 123 / 119 40% 2 27.04.2028 -
Abdoulaye Allamine Stars Jeunes Talents Active 61 / 69 40% 1 27.04.2028 -
Siyabonga Mabena Bidvest Wits Active 127 / 133 40% 4 25.04.2028 -
Nana Nuhu WAFA Active 103 / 98 40% 1 25.04.2028 -
Oskar Pietuszewski Estrela da Amadora Active 117 / 128 40% 3 23.04.2028 -
Leo Pecover Swindon Town Active 105 / 98 40% 1 23.04.2028 -
Mateus Mané Burnley Active 147 / 146 40% 4 21.04.2028 -
Omar Khedr Gillingham Active 105 / 114 40% 1 21.04.2028 -
Henrique Carmo Sochi Active 133 / 131 40% 1 19.04.2028 -
Eli Junior Kroupi Bournemouth Active 158 / 143 40% 5 18.04.2028 -
Igor Tyjon Barrow AFC Active 111 / 118 40% 2 14.04.2028 -
Gabe Forsyth Colchester United Active 111 / 112 40% 1 13.04.2028 -
Luca Meirelles Kudrivka Active 120 / 129 40% 2 12.04.2028 -
Babis Kostoulas Oxford United Active 149 / 145 40% 4 12.04.2028 -
Alphadjo Cissé Lecce Active 120 / 143 40% 1 11.04.2028 -
Rio Ngumoha Plymouth Argyle Active 154 / 141 40% 2 04.04.2028 -
Josh Acheampong Everton Active 153 / 148 40% 1 01.04.2028 -
Ryan McAidoo Oldham Athletic Active 120 / 125 40% 3 31.03.2028 -
Ibrahim Fullah Charlton Athletic Active 124 / 118 40% 1 27.03.2028 -
Eduardo Fernandes Benfica Active 132 / 130 40% 1 22.03.2028 -
Tyler Fletcher Rotherham United Active 100 / 121 40% 1 21.03.2028 -
Trey Nyoni Rotherham United Active 141 / 142 40% 3 17.03.2028 -
Rémi Himbert AC Ajaccio Active 112 / 118 40% 1 16.03.2028 -
Christ Wawa Gefle Active 95 / 104 40% 1 10.03.2028 -
Giovanni Cantizano Fulham Active 130 / 131 40% 1 08.03.2028 -
Ryan Kavuma-McQueen Accrington Stanley Active 106 / 124 40% 1 06.03.2028 -
Sindre Walle Egeli Udinese Active 134 / 146 40% 1 07.02.2028 -
Kaique Kenji Fortaleza Active 115 / 123 40% 1 04.01.2028 -
Seb Ferdinand Rotherham United Active 103 / 115 40% 1 03.01.2028 -
Lander Astiazarán Real Sociedad Active 110 / 110 40% 1 03.01.2028 -
Olaniyi Saheed Kwara United Active 97 / 109 40% 2 13.12.2027 -
Matias Siltanen Malmo FF Active 112 / 137 40% 1 13.12.2027 -
Onyeuche Ujunwa Ikorodu City Active 72 / 96 40% 3 08.12.2027 -
Aaron Branca Artigas Active 79 / 81 40% 1 08.12.2027 -
Nahuel Leivas Montevideo City Torque Active 103 / 104 40% 2 30.11.2027 -
Agustín Obregón River Plate Active 105 / 120 40% 1 30.11.2027 -
Jaen Pineda Real Cartagena Active 120 / 125 40% 3 29.11.2027 -
Pedro de la Vega Columbus Crew Active 152 / 140 40% 5 29.11.2027 -
Alex Luna Instituto Active 126 / 125 40% 5 25.11.2027 -
Alejo Dramisino Atlanta Active 119 / 119 40% 3 25.11.2027 -
Jáder Valencia Deportes Tolima Active 110 / 108 40% 1 24.11.2027 -
Johan Martínez Deportivo Cali Active 120 / 121 40% 1 23.11.2027 -
Sayfallah Ltaief O'Higgins Active 130 / 115 40% 2 22.11.2027 -
Bruno Leyes Godoy Cruz Active 120 / 131 40% 2 22.11.2027 -
Daniel Barrea Godoy Cruz Active 119 / 126 40% 5 21.11.2027 -
Juan Bisanz Huracán Active 123 / 124 40% 2 21.11.2027 -
Caio Vidal Deportivo Pereira Active 126 / 127 40% 4 20.11.2027 -
Jannenson Sarmiento Junior Active 121 / 122 40% 7 19.11.2027 -
Franco Nicola Liverpool Montevideo Active 122 / 120 40% 1 16.11.2027 -
Alexis Cuello San Lorenzo Active 120 / 120 40% 1 15.11.2027 -
Alejo Cruz Juventud Active 121 / 128 40% 5 14.11.2027 -
Camilo Martinez Cortulua Active 120 / 124 40% 4 13.11.2027 -
Sebastián Navarro Atletico Nacional Active 131 / 125 40% 1 12.11.2027 -
Cristian Barrios Junior Active 120 / 129 40% 3 11.11.2027 -
Edwin Mosquera Santa Fe Active 121 / 125 40% 4 11.11.2027 -
Patricio Moyano Defensores Active 118 / 117 40% 4 07.11.2027 -
Pablo 12 de Octubre Active 83 / 105 40% 2 07.11.2027 -
Oscar Garrido Mitre Active 118 / 109 40% 1 06.11.2027 -
Daniel Idoko Ikorodu City Active 106 / 88 40% 2 04.11.2027 -
Federico Bisanz Atlanta Active 124 / 117 40% 1 04.11.2027 -
Antony Portland Timbers Active 138 / 125 40% 1 01.11.2027 -
Esteban Obregón Montevideo City Torque Active 125 / 113 40% 2 28.10.2027 -
Martín Campos Ferro Carril Oeste Active 126 / 111 40% 2 21.10.2027 -
Santiago Montiel Independiente Active 125 / 123 40% 1 17.10.2027 -
Alejandro Piedrahita Deportivo Pereira Active 134 / 119 40% 1 15.10.2027 -
Fernando Bersano Madryn Active 112 / 109 40% 1 14.10.2027 -
Kelvin Flórez Deportes Tolima Active 113 / 118 40% 2 13.10.2027 -
Dylan Borrero America de Cali Active 114 / 118 40% 1 13.10.2027 -
Manuel Mónaco Sarmiento Active 129 / 115 40% 1 12.10.2027 -
Franco Fagúndez Iquique Active 115 / 115 40% 3 07.10.2027 -
Antonio Galeano Remo Stars Active 122 / 136 40% 4 03.10.2027 -
Rodrigo González Mitre Active 124 / 116 40% 1 01.10.2027 -
Diego García Danubio Active 117 / 123 40% 3 28.09.2027 -
Juan Camilo Córdoba Deportivo Pereira Active 84 / 93 40% 1 28.09.2027 -
Esteban de Lima Tacuarembo Active 99 / 92 40% 1 28.09.2027 -
Joel Ezra Enyimba Active 97 / 105 40% 3 27.09.2027 -
Ivan Borges Defensores Active 74 / 93 40% 2 27.09.2027 -
Adalberto Peñaranda Deportivo Tachira Active 120 / 117 40% 2 21.09.2027 -
Iñaki Larthirigoyen San Telmo Active 113 / 126 40% 2 21.09.2027 -
Emerson Batalla Atletico Bucaramanga Active 138 / 122 40% 1 20.09.2027 -
Victor Hernandez Santa Fe Active 126 / 121 40% 4 19.09.2027 -
Ignacio Fernández Boston River Active 84 / 97 40% 1 17.09.2027 -
Hosea Michael Remo Stars Active 87 / 99 40% 1 15.09.2027 -
Nicolás Retamar Ferro Carril Oeste Active 119 / 111 40% 3 05.09.2027 -
Samuel Velásquez Atletico Nacional Active 132 / 123 40% 2 05.09.2027 -
Brian Farioli Estudiantes Active 121 / 118 40% 1 25.08.2027 -
Pablo Cardona Cortulua Active 108 / 110 40% 1 20.08.2027 -
Martin Baturina Como Active 139 / 144 40% 1 19.08.2027 -
Alessio Zerbin Frosinone Active 153 / 136 40% 2 15.08.2027 -
Nicolò Cambiaghi Bologna Active 161 / 144 40% 1 14.08.2027 -
Lucas Rodríguez Albion Active 110 / 119 40% 1 13.08.2027 -
Ali Ahmed Norwich City Active 126 / 124 40% 1 09.08.2027 -
Isaiah Jones Luton Town Active 128 / 133 40% 1 09.08.2027 -
Daniel Kyerewaa Reading Active 123 / 121 40% 1 06.08.2027 -
Samuel Edozie Southampton Active 145 / 135 40% 1 06.08.2027 -
Cian Ashford Cardiff City Active 137 / 135 40% 2 05.08.2027 -
Finn Azaz Southampton Active 126 / 132 40% 1 03.08.2027 -
Jason Knight Bristol City Active 129 / 126 40% 1 02.08.2027 -
Shea Charles Southampton Active 127 / 145 40% 1 02.08.2027 -
Tiago Freitas Benfica Active 130 / 131 40% 3 21.07.2027 Monitor
Jenson Jones Walsall Active 85 / 104 40% 1 05.07.2027 -
Jack Diamond Stockport County Active 122 / 120 40% 1 27.06.2027 -
Federico Matarán Giana Erminio Active 83 / 105 40% 1 25.06.2027 -
Sascha Britschgi AC Milan Active 135 / 133 40% 2 24.06.2027 -
Kazunari Kita Real Sociedad Active 94 / 107 40% 1 23.06.2027 -
Godwin Oham Warri Wolves Active 78 / 92 40% 1 17.06.2027 -
Zeidane Inoussa Swansea City Active 123 / 120 40% 1 31.05.2027 -
Brian De Keersmaecker Oxford United Active 131 / 132 40% 1 28.05.2027 -
Marcelo Allende Mamelodi Sundowns Active 121 / 128 40% 4 27.05.2027 -
Moussa Baradji Blackburn Rovers Active 110 / 124 40% 1 27.05.2027 -
Marc Bola Watford Active 131 / 118 40% 2 26.05.2027 -
Bongani Zungu Ajax Cape Town Active 113 / 120 40% 3 26.05.2027 -
Tatsuhiro Sakamoto Coventry City Active 136 / 134 40% 1 24.05.2027 -
Lewis O'Brien Wrexham Active 135 / 134 40% 1 23.05.2027 -
Richard Koné Queens Park Rangers Active 137 / 116 40% 1 22.05.2027 -
Bernard Tekpetey Ludogorets Active 120 / 115 40% 3 21.05.2027 -
Jonathan Varane Queens Park Rangers Active 111 / 118 40% 1 20.05.2027 -
Olivier Leroux Mouscron Active 83 / 104 40% 2 19.05.2027 -
Adam Randell Bristol City Active 117 / 126 40% 2 17.05.2027 -
Simón Pinto Huachipato Active 94 / 104 40% 1 17.05.2027 -
Othmane Maamma Watford Active 139 / 136 40% 3 14.05.2027 -
Ryoya Morishita Blackburn Rovers Active 139 / 117 40% 3 14.05.2027 Monitor
Daniel Padilla Zamora Active 94 / 90 40% 1 14.05.2027 -
Andre Brooks Sheffield United Active 117 / 140 40% 2 13.05.2027 -
Marco Oroná Antofagasta Active 110 / 102 40% 1 10.05.2027 -
Atsuki Ito Bolton Wanderers Active 109 / 114 40% 1 09.05.2027 -
Darlin Yongwa Norwich City Active 113 / 132 40% 2 07.05.2027 -
Lewis Bate Stockport County Active 114 / 120 40% 1 07.05.2027 -
Sonny Carey Charlton Athletic Active 135 / 128 40% 2 06.05.2027 -
Perry Ng Cardiff City Active 127 / 112 40% 1 05.05.2027 -
Aaron Collins Milton Keynes Dons Active 137 / 116 40% 2 30.04.2027 -
Tahith Chong Sheffield United Active 138 / 115 40% 1 30.04.2027 -
Rocco Vata Watford Active 125 / 134 40% 1 29.04.2027 -
Kiani Inge Groningen Active 118 / 115 40% 1 27.04.2027 -
Zane Albarus Shrewsbury Town Active 93 / 103 40% 2 25.04.2027 -
Andrea Colpani Monza Active 123 / 144 40% 2 25.04.2027 -
Sam Bell Bristol City Active 135 / 118 40% 1 22.04.2027 -
Alex Robertson Cardiff City Active 105 / 113 40% 1 21.04.2027 -
Ezra Mayers West Ham United Active 104 / 135 40% 1 16.04.2027 -
Jack Currie Oxford United Active 117 / 127 40% 1 16.04.2027 -
Terry Devlin Portsmouth Active 127 / 127 40% 1 15.04.2027 -
Leon Bailey Olympiacos Active 132 / 134 40% 1 12.04.2027 -
Charlie Gray Fleetwood Town Active 92 / 95 40% 2 08.04.2027 -
Jackson Muleka Konyaspor Active 144 / 121 40% 3 08.04.2027 -
Mikey Johnston West Bromwich Albion Active 109 / 125 40% 1 06.04.2027 -
Jacques Ekomié Wrexham Active 137 / 120 40% 1 05.04.2027 -
Oswin Appollis Orlando Pirates Active 108 / 114 40% 1 01.04.2027 -
Diogo Gonçalves Konyaspor Active 128 / 123 40% 1 31.03.2027 -
Sam Greenwood Bristol City Active 105 / 120 40% 2 30.03.2027 -
Ben Sheaf Wrexham Active 146 / 123 40% 1 28.03.2027 -
Toby Collyer West Bromwich Albion Active 120 / 131 40% 1 26.03.2027 -
Conor Chaplin Leicester City Active 112 / 124 40% 1 25.03.2027 -
Tommaso Cecotti Carpi Active 108 / 91 40% 1 21.03.2027 -
Leandro Martins Benfica Active 77 / 108 40% 1 21.03.2027 -
Pelle Mattsson Norwich City Active 107 / 117 40% 1 20.03.2027 -
Alfie Devine Preston Active 130 / 121 40% 1 17.03.2027 -
Dean Jali Platinum Stars Active 80 / 93 40% 1 14.03.2027 -
Lucas Agazzi Villarreal Active 132 / 134 40% 1 14.03.2027 -
Jan Bürger Northampton Town Active 113 / 127 40% 1 12.03.2027 -
Vanja Dragojević Partizan Active 109 / 131 40% 1 11.03.2027 -
Gonçalo Oliveira Benfica Active 105 / 113 40% 1 09.03.2027 -
Lucas Lund Viborg Active 101 / 124 40% 1 28.11.2026 -
Callum O'Hare Sheffield United Active 132 / 118 40% 1 27.11.2026 -
Nicolás Cordero Aldosivi Active 124 / 111 40% 1 27.11.2026 -
Will Mannion Charlton Athletic Active 116 / 119 40% 1 26.11.2026 -
Martín Ojeda Orlando City Active 123 / 131 40% 2 25.11.2026 -
Joe Gelhardt Hull City Active 128 / 135 40% 1 19.11.2026 -
Christian Walton Ipswich Town Active 124 / 136 40% 1 18.11.2026 -
Joel Pereira Reading Active 106 / 105 40% 1 18.11.2026 -
Sota Kitano Red Bull Salzburg Active 106 / 125 40% 2 17.11.2026 -
Kyle Wootton Stockport County Active 110 / 115 40% 1 17.11.2026 -
Ole Sæter Valerenga Active 119 / 109 40% 1 08.11.2026 -
Ola Brynhildsen Rapid Wien Active 123 / 122 40% 1 08.11.2026 -
Patrick Schulte Columbus Crew Active 132 / 125 40% 2 05.11.2026 -
Lukas Gütlbauer Wolfsberger AC Active 116 / 111 40% 1 05.11.2026 -
Dayne St. Clair Inter Miami CF Active 108 / 119 40% 1 31.10.2026 -
Armstrong Oko-Flex Levski Active 128 / 127 40% 1 30.10.2026 -
Youssoufa Moukoko FC Copenhagen Active 120 / 119 40% 2 26.10.2026 -
Tomoki Hayakawa Kashima Antlers Active 131 / 140 40% 3 25.10.2026 -
Renato Solís Sporting Cristal Active 132 / 124 40% 2 21.10.2026 -
Zack Steffen Colorado Rapids Active 135 / 136 40% 2 21.10.2026 -
Talles Magno New York City Active 134 / 125 40% 1 18.10.2026 -
Osman Hadžikić Honved Active 94 / 110 40% 1 17.10.2026 -
Dejan Joveljić Seattle Sounders Active 111 / 123 40% 1 17.10.2026 -
Bamba Dieng Crvena Zvezda Active 119 / 121 40% 1 16.10.2026 -
Robby McCrorie NK Varazdin Active 104 / 109 40% 1 15.10.2026 -
Andrei Vlad Petrolul Active 128 / 117 40% 1 15.10.2026 -
Sipho Chaine Orlando Pirates Active 99 / 123 40% 1 10.10.2026 -
Đorđe Nikolić Cukaricki Active 109 / 116 40% 1 07.10.2026 -
Thomas Strakosha AEK Active 124 / 130 40% 1 07.10.2026 -
CJ dos Santos San Diego Football Club Active 113 / 99 40% 1 04.10.2026 -
Drake Callender Minnesota United FC Active 133 / 129 40% 1 03.10.2026 -
Gonzalo Carneiro Sparta Prague Active 131 / 112 40% 2 02.10.2026 -
Duncan McGuire Houston Dynamo Active 137 / 114 40% 1 02.10.2026 -
Brandon Vázquez Austin FC Active 124 / 128 40% 1 01.10.2026 -
Lucas Bergström Union Berlin Active 132 / 126 40% 2 26.09.2026 -
Germán Berterame Inter Miami CF Active 122 / 131 40% 3 22.09.2026 -
Luka Gavran Toronto FC Active 122 / 100 40% 3 21.09.2026 -
Martin Jedlička Banik Ostrava Active 130 / 127 40% 2 20.09.2026 -
Patrick Pentz Brondby Active 127 / 129 40% 1 16.09.2026 -
Facundo Altamirano San Lorenzo Active 115 / 111 40% 1 16.09.2026 -
Richard Ludha MFK Skalica Active 101 / 108 40% 1 14.09.2026 -
Cristopher Varela Deportivo La Guaira Active 102 / 109 40% 2 13.09.2026 -
Timo Werner San Jose Earthquakes Active 141 / 135 40% 1 11.09.2026 -
Kévin Denkey FC Cincinnati Active 112 / 133 40% 1 11.09.2026 -
Pep Biel Charlotte Football Club Active 123 / 130 40% 2 08.09.2026 -
Assad Al Hamlawi Universitatea Craiova Active 135 / 116 40% 1 07.09.2026 -
Morgan Guilavogui Real Salt Lake Active 132 / 119 40% 2 05.09.2026 -
Bongani Khune SuperSport United Active 116 / 125 40% 1 05.09.2026 -
Josh Sargent Toronto FC Active 138 / 122 40% 1 04.09.2026 -
Diego Romero Universitario Active 125 / 127 40% 2 31.08.2026 -
Leonardo Campana New England Revolution Active 139 / 123 40% 1 31.08.2026 -
Leopold Wahlstedt Rosenborg Active 116 / 105 40% 1 31.08.2026 -
Wessam Abou Ali Columbus Crew Active 112 / 124 40% 1 29.08.2026 -
Evgeny Staver Rubin Active 95 / 113 40% 1 26.08.2026 -
Oscar Hedvall Valerenga Active 108 / 116 40% 1 23.08.2026 -
James Pantemis Portland Timbers Active 97 / 114 40% 1 23.08.2026 -
Diego Enríquez Sporting Cristal Active 136 / 128 40% 1 22.08.2026 -
Eryc Castillo Alianza Lima Active 115 / 119 40% 1 21.08.2026 -
Cheikh Sabaly Vancouver Whitecaps Active 109 / 121 40% 1 21.08.2026 -
Lewis Morgan Toronto FC Active 140 / 123 40% 1 20.08.2026 -
Ramiro Ruiz Rodríguez Atlético Tucumán Active 127 / 114 40% 1 17.08.2026 -
Erik Botheim Viking Active 114 / 120 40% 1 16.08.2026 -
Nardin Mulahusejnović Vojvodina Active 113 / 113 40% 1 16.08.2026 -
Kiril Despodov PAOK Active 140 / 132 40% 2 15.08.2026 -
Maurits Kjærgaard Red Bull Salzburg Active 114 / 138 40% 1 15.08.2026 -
Harold Santiago Mosquera Cerro Porteno Active 123 / 117 40% 1 14.08.2026 -
Alejandro Araque Deportivo Tachira Active 102 / 112 40% 1 13.08.2026 -
Cyriel Dessers Panathinaikos Active 122 / 123 40% 1 11.08.2026 -
Barnabás Varga AEK Active 126 / 136 40% 1 03.08.2026 -
Munir Albacete Active 108 / 132 40% 1 02.08.2026 -